sensor_id;sensor_type;location;lat;lon;timestamp;temperature;humidity
14409;DHT22;7289;50.706;4.992;2023-06-10T00:00:06;18.80;95.60
14409;DHT22;7289;50.706;4.992;2023-06-10T00:02:43;18.70;95.70
14409;DHT22;7289;50.706;4.992;2023-06-10T00:05:12;18.70;95.60
14409;DHT22;7289;50.706;4.992;2023-06-10T00:07:40;18.60;95.70
14409;DHT22;7289;50.706;4.992;2023-06-10T00:10:09;18.70;95.70
14409;DHT22;7289;50.706;4.992;2023-06-10T00:12:37;18.60;95.60
14409;DHT22;7289;50.706;4.992;2023-06-10T00:15:08;18.50;95.70
14409;DHT22;7289;50.706;4.992;2023-06-10T00:17:37;18.50;95.90
14409;DHT22;7289;50.706;4.992;2023-06-10T00:20:10;18.50;95.80
14409;DHT22;7289;50.706;4.992;2023-06-10T00:22:39;18.50;95.80
14409;DHT22;7289;50.706;4.992;2023-06-10T00:25:13;18.50;96.00
14409;DHT22;7289;50.706;4.992;2023-06-10T00:27:41;18.50;96.00
14409;DHT22;7289;50.706;4.992;2023-06-10T00:30:10;18.50;96.10
14409;DHT22;7289;50.706;4.992;2023-06-10T00:32:38;18.50;96.20
14409;DHT22;7289;50.706;4.992;2023-06-10T00:35:09;18.40;96.10
14409;DHT22;7289;50.706;4.992;2023-06-10T00:37:38;18.40;96.30
14409;DHT22;7289;50.706;4.992;2023-06-10T00:40:07;18.40;96.20
14409;DHT22;7289;50.706;4.992;2023-06-10T00:42:36;18.30;96.30
14409;DHT22;7289;50.706;4.992;2023-06-10T00:45:05;18.20;96.40
14409;DHT22;7289;50.706;4.992;2023-06-10T00:47:36;18.20;96.50
14409;DHT22;7289;50.706;4.992;2023-06-10T00:50:05;18.20;96.60
14409;DHT22;7289;50.706;4.992;2023-06-10T00:52:36;18.10;96.70
14409;DHT22;7289;50.706;4.992;2023-06-10T00:55:05;18.10;96.80
14409;DHT22;7289;50.706;4.992;2023-06-10T00:57:35;18.10;96.90
14409;DHT22;7289;50.706;4.992;2023-06-10T01:00:05;18.10;97.20
14409;DHT22;7289;50.706;4.992;2023-06-10T01:02:36;18.00;97.40
14409;DHT22;7289;50.706;4.992;2023-06-10T01:05:05;18.00;97.30
14409;DHT22;7289;50.706;4.992;2023-06-10T01:07:39;18.00;97.50
14409;DHT22;7289;50.706;4.992;2023-06-10T01:10:14;18.00;97.70
14409;DHT22;7289;50.706;4.992;2023-06-10T01:12:46;17.90;97.50
14409;DHT22;7289;50.706;4.992;2023-06-10T01:15:21;17.80;97.60
14409;DHT22;7289;50.706;4.992;2023-06-10T01:17:57;17.80;97.60
14409;DHT22;7289;50.706;4.992;2023-06-10T01:20:27;17.70;97.60
14409;DHT22;7289;50.706;4.992;2023-06-10T01:22:58;17.60;97.70
14409;DHT22;7289;50.706;4.992;2023-06-10T01:25:27;17.60;97.90
14409;DHT22;7289;50.706;4.992;2023-06-10T01:28:02;17.50;98.00
14409;DHT22;7289;50.706;4.992;2023-06-10T01:30:37;17.40;98.20
14409;DHT22;7289;50.706;4.992;2023-06-10T01:33:09;17.30;98.30
14409;DHT22;7289;50.706;4.992;2023-06-10T01:35:39;17.30;98.30
14409;DHT22;7289;50.706;4.992;2023-06-10T01:38:10;17.20;98.40
14409;DHT22;7289;50.706;4.992;2023-06-10T01:40:40;17.20;98.50
14409;DHT22;7289;50.706;4.992;2023-06-10T01:43:09;17.20;98.70
14409;DHT22;7289;50.706;4.992;2023-06-10T01:45:39;17.10;98.90
14409;DHT22;7289;50.706;4.992;2023-06-10T01:48:07;17.00;99.10
14409;DHT22;7289;50.706;4.992;2023-06-10T01:50:36;17.00;99.10
14409;DHT22;7289;50.706;4.992;2023-06-10T01:53:04;16.90;99.30
14409;DHT22;7289;50.706;4.992;2023-06-10T01:55:34;16.80;99.50
14409;DHT22;7289;50.706;4.992;2023-06-10T01:58:02;16.80;99.60
14409;DHT22;7289;50.706;4.992;2023-06-10T02:00:31;16.70;99.70
14409;DHT22;7289;50.706;4.992;2023-06-10T02:03:00;16.70;99.70
14409;DHT22;7289;50.706;4.992;2023-06-10T02:05:29;16.70;99.70
14409;DHT22;7289;50.706;4.992;2023-06-10T02:07:57;16.60;99.80
14409;DHT22;7289;50.706;4.992;2023-06-10T02:10:25;16.60;99.90
14409;DHT22;7289;50.706;4.992;2023-06-10T02:12:55;16.50;99.90
14409;DHT22;7289;50.706;4.992;2023-06-10T02:15:24;16.50;99.90
14409;DHT22;7289;50.706;4.992;2023-06-10T02:17:52;16.50;99.90
14409;DHT22;7289;50.706;4.992;2023-06-10T02:20:21;16.40;99.90
14409;DHT22;7289;50.706;4.992;2023-06-10T02:22:50;16.40;99.90
14409;DHT22;7289;50.706;4.992;2023-06-10T02:25:18;16.30;99.90
14409;DHT22;7289;50.706;4.992;2023-06-10T02:27:47;16.30;99.90
14409;DHT22;7289;50.706;4.992;2023-06-10T02:30:16;16.30;99.90
14409;DHT22;7289;50.706;4.992;2023-06-10T02:32:45;16.30;99.90
14409;DHT22;7289;50.706;4.992;2023-06-10T02:35:17;16.30;99.90
14409;DHT22;7289;50.706;4.992;2023-06-10T02:37:45;16.30;99.90
14409;DHT22;7289;50.706;4.992;2023-06-10T02:40:14;16.30;99.90
14409;DHT22;7289;50.706;4.992;2023-06-10T02:42:42;16.20;99.90
14409;DHT22;7289;50.706;4.992;2023-06-10T02:45:11;16.20;99.90
14409;DHT22;7289;50.706;4.992;2023-06-10T02:47:43;16.20;99.90
14409;DHT22;7289;50.706;4.992;2023-06-10T02:50:13;16.10;99.90
14409;DHT22;7289;50.706;4.992;2023-06-10T02:52:51;16.00;99.90
14409;DHT22;7289;50.706;4.992;2023-06-10T02:55:20;15.90;99.90
14409;DHT22;7289;50.706;4.992;2023-06-10T02:57:54;15.90;99.90
14409;DHT22;7289;50.706;4.992;2023-06-10T03:00:24;15.90;99.90
14409;DHT22;7289;50.706;4.992;2023-06-10T03:02:53;15.90;99.90
14409;DHT22;7289;50.706;4.992;2023-06-10T03:05:28;15.80;99.90
14409;DHT22;7289;50.706;4.992;2023-06-10T03:08:00;15.80;99.90
14409;DHT22;7289;50.706;4.992;2023-06-10T03:10:30;15.80;99.90
14409;DHT22;7289;50.706;4.992;2023-06-10T03:13:00;15.70;99.90
14409;DHT22;7289;50.706;4.992;2023-06-10T03:15:30;15.60;99.90
14409;DHT22;7289;50.706;4.992;2023-06-10T03:18:03;15.60;99.90
14409;DHT22;7289;50.706;4.992;2023-06-10T03:20:32;15.60;99.90
14409;DHT22;7289;50.706;4.992;2023-06-10T03:23:05;15.50;99.90
14409;DHT22;7289;50.706;4.992;2023-06-10T03:25:35;15.50;99.90
14409;DHT22;7289;50.706;4.992;2023-06-10T03:28:03;15.50;99.90
14409;DHT22;7289;50.706;4.992;2023-06-10T03:30:34;15.50;99.90
14409;DHT22;7289;50.706;4.992;2023-06-10T03:33:04;15.50;99.90
14409;DHT22;7289;50.706;4.992;2023-06-10T03:35:33;15.40;99.90
14409;DHT22;7289;50.706;4.992;2023-06-10T03:38:03;15.40;99.90
14409;DHT22;7289;50.706;4.992;2023-06-10T03:40:31;15.40;99.90
14409;DHT22;7289;50.706;4.992;2023-06-10T03:43:00;15.40;99.90
14409;DHT22;7289;50.706;4.992;2023-06-10T03:45:30;15.30;99.90
14409;DHT22;7289;50.706;4.992;2023-06-10T03:48:00;15.40;99.90
14409;DHT22;7289;50.706;4.992;2023-06-10T03:50:42;15.40;99.90
14409;DHT22;7289;50.706;4.992;2023-06-10T03:53:10;15.40;99.90
14409;DHT22;7289;50.706;4.992;2023-06-10T03:55:43;15.40;99.90
14409;DHT22;7289;50.706;4.992;2023-06-10T03:58:12;15.40;99.90
14409;DHT22;7289;50.706;4.992;2023-06-10T04:00:42;15.40;99.90
14409;DHT22;7289;50.706;4.992;2023-06-10T04:03:12;15.40;99.90
14409;DHT22;7289;50.706;4.992;2023-06-10T04:05:50;15.40;99.90
14409;DHT22;7289;50.706;4.992;2023-06-10T04:08:19;15.50;99.90
14409;DHT22;7289;50.706;4.992;2023-06-10T04:10:47;15.50;99.90
14409;DHT22;7289;50.706;4.992;2023-06-10T04:13:16;15.50;99.90
14409;DHT22;7289;50.706;4.992;2023-06-10T04:15:51;15.60;99.90
14409;DHT22;7289;50.706;4.992;2023-06-10T04:18:21;15.60;99.90
14409;DHT22;7289;50.706;4.992;2023-06-10T04:20:54;15.70;99.90
14409;DHT22;7289;50.706;4.992;2023-06-10T04:23:22;15.70;99.90
14409;DHT22;7289;50.706;4.992;2023-06-10T04:25:51;15.70;99.90
14409;DHT22;7289;50.706;4.992;2023-06-10T04:28:20;15.80;99.90
14409;DHT22;7289;50.706;4.992;2023-06-10T04:30:48;15.80;99.90
14409;DHT22;7289;50.706;4.992;2023-06-10T04:33:16;15.80;99.90
14409;DHT22;7289;50.706;4.992;2023-06-10T04:35:45;15.90;99.90
14409;DHT22;7289;50.706;4.992;2023-06-10T04:38:16;15.90;99.90
14409;DHT22;7289;50.706;4.992;2023-06-10T04:40:45;15.90;99.90
14409;DHT22;7289;50.706;4.992;2023-06-10T04:43:14;15.90;99.90
14409;DHT22;7289;50.706;4.992;2023-06-10T04:45:45;16.00;99.90
14409;DHT22;7289;50.706;4.992;2023-06-10T04:48:14;16.00;99.90
14409;DHT22;7289;50.706;4.992;2023-06-10T04:50:42;16.10;99.90
14409;DHT22;7289;50.706;4.992;2023-06-10T04:53:11;16.20;99.90
14409;DHT22;7289;50.706;4.992;2023-06-10T04:55:45;16.30;99.90
14409;DHT22;7289;50.706;4.992;2023-06-10T04:58:15;16.40;99.90
14409;DHT22;7289;50.706;4.992;2023-06-10T05:00:43;16.50;99.90
14409;DHT22;7289;50.706;4.992;2023-06-10T05:03:12;16.50;99.90
14409;DHT22;7289;50.706;4.992;2023-06-10T05:05:40;16.60;99.90
14409;DHT22;7289;50.706;4.992;2023-06-10T05:08:08;16.70;99.90
14409;DHT22;7289;50.706;4.992;2023-06-10T05:10:37;16.80;99.90
14409;DHT22;7289;50.706;4.992;2023-06-10T05:13:07;16.90;99.90
14409;DHT22;7289;50.706;4.992;2023-06-10T05:15:35;17.00;99.90
14409;DHT22;7289;50.706;4.992;2023-06-10T05:18:04;17.20;99.90
14409;DHT22;7289;50.706;4.992;2023-06-10T05:20:32;17.30;99.90
14409;DHT22;7289;50.706;4.992;2023-06-10T05:23:00;17.50;99.90
14409;DHT22;7289;50.706;4.992;2023-06-10T05:25:30;17.60;99.90
14409;DHT22;7289;50.706;4.992;2023-06-10T05:27:59;17.80;99.90
14409;DHT22;7289;50.706;4.992;2023-06-10T05:30:29;17.90;99.90
14409;DHT22;7289;50.706;4.992;2023-06-10T05:32:57;18.10;99.90
14409;DHT22;7289;50.706;4.992;2023-06-10T05:35:26;18.20;99.90
14409;DHT22;7289;50.706;4.992;2023-06-10T05:37:54;18.30;99.90
14409;DHT22;7289;50.706;4.992;2023-06-10T05:40:23;18.50;99.90
14409;DHT22;7289;50.706;4.992;2023-06-10T05:42:51;18.60;99.90
14409;DHT22;7289;50.706;4.992;2023-06-10T05:45:19;18.70;99.90
14409;DHT22;7289;50.706;4.992;2023-06-10T05:47:49;18.90;99.90
14409;DHT22;7289;50.706;4.992;2023-06-10T05:50:17;19.10;99.90
14409;DHT22;7289;50.706;4.992;2023-06-10T05:52:46;19.20;99.90
14409;DHT22;7289;50.706;4.992;2023-06-10T05:55:14;19.40;99.90
14409;DHT22;7289;50.706;4.992;2023-06-10T05:57:42;19.50;99.50
14409;DHT22;7289;50.706;4.992;2023-06-10T06:00:12;19.70;99.00
14409;DHT22;7289;50.706;4.992;2023-06-10T06:02:41;19.80;98.70
14409;DHT22;7289;50.706;4.992;2023-06-10T06:05:11;19.90;98.60
14409;DHT22;7289;50.706;4.992;2023-06-10T06:07:40;20.10;99.20
14409;DHT22;7289;50.706;4.992;2023-06-10T06:10:08;20.20;99.10
14409;DHT22;7289;50.706;4.992;2023-06-10T06:12:37;20.30;98.70
14409;DHT22;7289;50.706;4.992;2023-06-10T06:15:06;20.60;99.10
14409;DHT22;7289;50.706;4.992;2023-06-10T06:17:35;20.70;98.70
14409;DHT22;7289;50.706;4.992;2023-06-10T06:20:05;20.80;98.30
14409;DHT22;7289;50.706;4.992;2023-06-10T06:22:35;21.00;98.00
14409;DHT22;7289;50.706;4.992;2023-06-10T06:25:04;21.20;98.80
14409;DHT22;7289;50.706;4.992;2023-06-10T06:27:33;21.30;98.50
14409;DHT22;7289;50.706;4.992;2023-06-10T06:30:01;21.50;98.10
14409;DHT22;7289;50.706;4.992;2023-06-10T06:32:30;21.60;97.60
14409;DHT22;7289;50.706;4.992;2023-06-10T06:34:58;21.70;97.30
14409;DHT22;7289;50.706;4.992;2023-06-10T06:37:27;21.90;96.30
14409;DHT22;7289;50.706;4.992;2023-06-10T06:40:14;22.00;97.30
14409;DHT22;7289;50.706;4.992;2023-06-10T06:42:42;22.20;97.10
14409;DHT22;7289;50.706;4.992;2023-06-10T06:45:31;22.30;95.90
14409;DHT22;7289;50.706;4.992;2023-06-10T06:48:01;22.40;95.40
14409;DHT22;7289;50.706;4.992;2023-06-10T06:50:29;22.40;95.40
14409;DHT22;7289;50.706;4.992;2023-06-10T06:52:57;22.60;95.20
14409;DHT22;7289;50.706;4.992;2023-06-10T06:55:27;22.70;95.60
14409;DHT22;7289;50.706;4.992;2023-06-10T06:57:56;22.90;95.10
14409;DHT22;7289;50.706;4.992;2023-06-10T07:00:24;23.00;95.40
14409;DHT22;7289;50.706;4.992;2023-06-10T07:02:52;23.10;95.40
14409;DHT22;7289;50.706;4.992;2023-06-10T07:05:20;23.40;95.20
14409;DHT22;7289;50.706;4.992;2023-06-10T07:07:49;23.50;95.40
14409;DHT22;7289;50.706;4.992;2023-06-10T07:10:22;23.70;94.50
14409;DHT22;7289;50.706;4.992;2023-06-10T07:12:52;23.90;94.70
14409;DHT22;7289;50.706;4.992;2023-06-10T07:15:21;23.90;92.80
14409;DHT22;7289;50.706;4.992;2023-06-10T07:17:49;24.10;92.60
14409;DHT22;7289;50.706;4.992;2023-06-10T07:20:17;24.20;92.20
14409;DHT22;7289;50.706;4.992;2023-06-10T07:22:46;24.30;92.30
14409;DHT22;7289;50.706;4.992;2023-06-10T07:25:14;24.40;92.50
14409;DHT22;7289;50.706;4.992;2023-06-10T07:27:43;24.60;92.30
14409;DHT22;7289;50.706;4.992;2023-06-10T07:30:13;24.60;92.70
14409;DHT22;7289;50.706;4.992;2023-06-10T07:32:42;24.80;91.90
14409;DHT22;7289;50.706;4.992;2023-06-10T07:35:11;24.90;92.70
14409;DHT22;7289;50.706;4.992;2023-06-10T07:37:40;25.00;92.40
14409;DHT22;7289;50.706;4.992;2023-06-10T07:40:09;25.20;93.30
14409;DHT22;7289;50.706;4.992;2023-06-10T07:42:37;25.20;91.30
14409;DHT22;7289;50.706;4.992;2023-06-10T07:45:07;25.30;92.10
14409;DHT22;7289;50.706;4.992;2023-06-10T07:47:37;25.40;91.80
14409;DHT22;7289;50.706;4.992;2023-06-10T07:50:06;25.50;91.00
14409;DHT22;7289;50.706;4.992;2023-06-10T07:52:34;25.50;91.00
14409;DHT22;7289;50.706;4.992;2023-06-10T07:55:03;25.50;90.70
14409;DHT22;7289;50.706;4.992;2023-06-10T07:57:32;25.60;91.60
14409;DHT22;7289;50.706;4.992;2023-06-10T08:00:04;25.80;91.60
14409;DHT22;7289;50.706;4.992;2023-06-10T08:02:39;26.00;91.10
14409;DHT22;7289;50.706;4.992;2023-06-10T08:05:08;25.90;90.20
14409;DHT22;7289;50.706;4.992;2023-06-10T08:07:37;26.00;90.80
14409;DHT22;7289;50.706;4.992;2023-06-10T08:10:06;26.10;91.30
14409;DHT22;7289;50.706;4.992;2023-06-10T08:12:35;26.10;90.90
14409;DHT22;7289;50.706;4.992;2023-06-10T08:15:04;26.20;88.60
14409;DHT22;7289;50.706;4.992;2023-06-10T08:17:33;26.20;90.90
14409;DHT22;7289;50.706;4.992;2023-06-10T08:20:03;26.30;90.20
14409;DHT22;7289;50.706;4.992;2023-06-10T08:22:32;26.50;90.10
14409;DHT22;7289;50.706;4.992;2023-06-10T08:25:01;26.60;90.10
14409;DHT22;7289;50.706;4.992;2023-06-10T08:27:29;26.60;90.00
14409;DHT22;7289;50.706;4.992;2023-06-10T08:29:58;26.70;90.50
14409;DHT22;7289;50.706;4.992;2023-06-10T08:32:28;26.80;86.70
14409;DHT22;7289;50.706;4.992;2023-06-10T08:34:56;26.90;86.70
14409;DHT22;7289;50.706;4.992;2023-06-10T08:37:26;26.80;87.30
14409;DHT22;7289;50.706;4.992;2023-06-10T08:39:54;26.90;87.10
14409;DHT22;7289;50.706;4.992;2023-06-10T08:42:24;26.90;85.30
14409;DHT22;7289;50.706;4.992;2023-06-10T08:44:54;27.00;86.40
14409;DHT22;7289;50.706;4.992;2023-06-10T08:47:24;27.00;86.40
14409;DHT22;7289;50.706;4.992;2023-06-10T08:49:55;27.10;87.20
14409;DHT22;7289;50.706;4.992;2023-06-10T08:52:35;27.30;86.80
14409;DHT22;7289;50.706;4.992;2023-06-10T08:55:10;27.30;85.70
14409;DHT22;7289;50.706;4.992;2023-06-10T08:57:40;27.40;85.80
14409;DHT22;7289;50.706;4.992;2023-06-10T09:00:10;27.50;85.40
14409;DHT22;7289;50.706;4.992;2023-06-10T09:02:39;27.50;82.90
14409;DHT22;7289;50.706;4.992;2023-06-10T09:05:09;27.50;82.70
14409;DHT22;7289;50.706;4.992;2023-06-10T09:07:39;27.50;81.70
14409;DHT22;7289;50.706;4.992;2023-06-10T09:10:09;27.60;81.30
14409;DHT22;7289;50.706;4.992;2023-06-10T09:12:38;27.60;80.00
14409;DHT22;7289;50.706;4.992;2023-06-10T09:15:07;27.60;82.00
14409;DHT22;7289;50.706;4.992;2023-06-10T09:17:36;27.70;83.40
14409;DHT22;7289;50.706;4.992;2023-06-10T09:20:06;27.80;82.00
14409;DHT22;7289;50.706;4.992;2023-06-10T09:22:41;27.90;82.30
14409;DHT22;7289;50.706;4.992;2023-06-10T09:25:11;28.00;82.80
14409;DHT22;7289;50.706;4.992;2023-06-10T09:27:47;28.00;81.90
14409;DHT22;7289;50.706;4.992;2023-06-10T09:30:25;28.20;80.60
14409;DHT22;7289;50.706;4.992;2023-06-10T09:32:55;28.10;78.70
14409;DHT22;7289;50.706;4.992;2023-06-10T09:35:24;27.90;80.60
14409;DHT22;7289;50.706;4.992;2023-06-10T09:37:55;28.20;80.10
14409;DHT22;7289;50.706;4.992;2023-06-10T09:40:24;28.20;80.10
14409;DHT22;7289;50.706;4.992;2023-06-10T09:42:54;28.30;80.10
14409;DHT22;7289;50.706;4.992;2023-06-10T09:45:23;28.40;78.60
14409;DHT22;7289;50.706;4.992;2023-06-10T09:47:55;28.30;77.90
14409;DHT22;7289;50.706;4.992;2023-06-10T09:50:24;28.10;74.60
14409;DHT22;7289;50.706;4.992;2023-06-10T09:52:54;28.10;79.60
14409;DHT22;7289;50.706;4.992;2023-06-10T09:55:23;28.10;78.80
14409;DHT22;7289;50.706;4.992;2023-06-10T09:57:53;28.20;81.10
14409;DHT22;7289;50.706;4.992;2023-06-10T10:00:22;28.30;81.50
14409;DHT22;7289;50.706;4.992;2023-06-10T10:02:53;28.40;80.20
14409;DHT22;7289;50.706;4.992;2023-06-10T10:05:22;28.40;81.90
14409;DHT22;7289;50.706;4.992;2023-06-10T10:07:51;28.40;82.30
14409;DHT22;7289;50.706;4.992;2023-06-10T10:10:21;28.40;80.20
14409;DHT22;7289;50.706;4.992;2023-06-10T10:12:54;28.30;80.70
14409;DHT22;7289;50.706;4.992;2023-06-10T10:15:25;28.40;80.90
14409;DHT22;7289;50.706;4.992;2023-06-10T10:18:00;28.50;79.70
14409;DHT22;7289;50.706;4.992;2023-06-10T10:20:33;28.50;78.10
14409;DHT22;7289;50.706;4.992;2023-06-10T10:23:03;28.60;80.30
14409;DHT22;7289;50.706;4.992;2023-06-10T10:25:38;28.80;79.50
14409;DHT22;7289;50.706;4.992;2023-06-10T10:28:09;28.70;76.50
14409;DHT22;7289;50.706;4.992;2023-06-10T10:30:40;28.80;79.40
14409;DHT22;7289;50.706;4.992;2023-06-10T10:33:13;28.70;78.10
14409;DHT22;7289;50.706;4.992;2023-06-10T10:35:46;28.80;79.80
14409;DHT22;7289;50.706;4.992;2023-06-10T10:38:14;28.80;77.50
14409;DHT22;7289;50.706;4.992;2023-06-10T10:40:45;28.80;78.70
14409;DHT22;7289;50.706;4.992;2023-06-10T10:43:14;29.00;79.60
14409;DHT22;7289;50.706;4.992;2023-06-10T10:45:45;29.10;76.60
14409;DHT22;7289;50.706;4.992;2023-06-10T10:48:14;29.10;78.00
14409;DHT22;7289;50.706;4.992;2023-06-10T10:50:43;29.30;77.00
14409;DHT22;7289;50.706;4.992;2023-06-10T10:53:11;29.30;74.30
14409;DHT22;7289;50.706;4.992;2023-06-10T10:55:59;29.30;74.80
14409;DHT22;7289;50.706;4.992;2023-06-10T10:58:28;29.30;76.50
14409;DHT22;7289;50.706;4.992;2023-06-10T11:00:56;29.40;75.40
14409;DHT22;7289;50.706;4.992;2023-06-10T11:03:28;29.30;75.00
14409;DHT22;7289;50.706;4.992;2023-06-10T11:05:58;29.30;74.40
14409;DHT22;7289;50.706;4.992;2023-06-10T11:08:46;29.30;76.10
14409;DHT22;7289;50.706;4.992;2023-06-10T11:11:23;29.30;76.70
14409;DHT22;7289;50.706;4.992;2023-06-10T11:13:59;29.40;77.00
14409;DHT22;7289;50.706;4.992;2023-06-10T11:16:38;29.30;73.40
14409;DHT22;7289;50.706;4.992;2023-06-10T11:19:08;29.40;73.70
14409;DHT22;7289;50.706;4.992;2023-06-10T11:21:57;29.50;73.30
14409;DHT22;7289;50.706;4.992;2023-06-10T11:24:27;29.50;74.90
14409;DHT22;7289;50.706;4.992;2023-06-10T11:27:18;29.70;75.80
14409;DHT22;7289;50.706;4.992;2023-06-10T11:30:18;29.80;73.90
14409;DHT22;7289;50.706;4.992;2023-06-10T11:32:51;29.90;72.60
14409;DHT22;7289;50.706;4.992;2023-06-10T11:35:23;30.10;73.50
14409;DHT22;7289;50.706;4.992;2023-06-10T11:37:54;29.90;74.30
14409;DHT22;7289;50.706;4.992;2023-06-10T11:40:22;29.80;70.70
14409;DHT22;7289;50.706;4.992;2023-06-10T11:42:52;29.90;71.60
14409;DHT22;7289;50.706;4.992;2023-06-10T11:45:20;29.90;71.10
14409;DHT22;7289;50.706;4.992;2023-06-10T11:47:56;30.10;71.20
14409;DHT22;7289;50.706;4.992;2023-06-10T11:50:29;30.10;68.80
14409;DHT22;7289;50.706;4.992;2023-06-10T11:52:58;30.30;69.60
14409;DHT22;7289;50.706;4.992;2023-06-10T11:55:41;30.10;67.20
14409;DHT22;7289;50.706;4.992;2023-06-10T11:58:14;30.30;70.90
14409;DHT22;7289;50.706;4.992;2023-06-10T12:00:46;30.40;71.60
14409;DHT22;7289;50.706;4.992;2023-06-10T12:03:15;30.60;70.60
14409;DHT22;7289;50.706;4.992;2023-06-10T12:05:57;30.70;70.80
14409;DHT22;7289;50.706;4.992;2023-06-10T12:08:26;30.40;69.30
14409;DHT22;7289;50.706;4.992;2023-06-10T12:10:55;30.40;67.50
14409;DHT22;7289;50.706;4.992;2023-06-10T12:13:27;30.60;70.30
14409;DHT22;7289;50.706;4.992;2023-06-10T12:16:06;30.70;68.20
14409;DHT22;7289;50.706;4.992;2023-06-10T12:18:35;30.90;69.80
14409;DHT22;7289;50.706;4.992;2023-06-10T12:21:03;31.00;70.00
14409;DHT22;7289;50.706;4.992;2023-06-10T12:24:01;31.00;69.70
14409;DHT22;7289;50.706;4.992;2023-06-10T12:26:40;31.00;71.90
14409;DHT22;7289;50.706;4.992;2023-06-10T12:29:21;31.00;69.40
14409;DHT22;7289;50.706;4.992;2023-06-10T12:32:02;31.00;67.30
14409;DHT22;7289;50.706;4.992;2023-06-10T12:34:36;31.10;66.20
14409;DHT22;7289;50.706;4.992;2023-06-10T12:37:06;31.10;67.50
14409;DHT22;7289;50.706;4.992;2023-06-10T12:39:41;31.00;64.90
14409;DHT22;7289;50.706;4.992;2023-06-10T12:42:10;30.40;65.30
14409;DHT22;7289;50.706;4.992;2023-06-10T12:44:41;30.40;66.60
14409;DHT22;7289;50.706;4.992;2023-06-10T12:47:10;30.30;68.30
14409;DHT22;7289;50.706;4.992;2023-06-10T12:49:39;30.20;67.00
14409;DHT22;7289;50.706;4.992;2023-06-10T12:52:07;30.20;66.00
14409;DHT22;7289;50.706;4.992;2023-06-10T12:54:36;30.30;66.30
14409;DHT22;7289;50.706;4.992;2023-06-10T12:57:05;30.30;69.30
14409;DHT22;7289;50.706;4.992;2023-06-10T12:59:33;30.20;67.20
14409;DHT22;7289;50.706;4.992;2023-06-10T13:02:03;30.10;65.60
14409;DHT22;7289;50.706;4.992;2023-06-10T13:04:31;30.10;67.00
14409;DHT22;7289;50.706;4.992;2023-06-10T13:07:00;30.20;70.00
14409;DHT22;7289;50.706;4.992;2023-06-10T13:09:28;30.40;68.40
14409;DHT22;7289;50.706;4.992;2023-06-10T13:11:57;30.50;67.30
14409;DHT22;7289;50.706;4.992;2023-06-10T13:14:26;30.60;66.00
14409;DHT22;7289;50.706;4.992;2023-06-10T13:16:55;30.50;66.30
14409;DHT22;7289;50.706;4.992;2023-06-10T13:19:25;30.60;65.90
14409;DHT22;7289;50.706;4.992;2023-06-10T13:21:53;30.60;66.40
14409;DHT22;7289;50.706;4.992;2023-06-10T13:24:22;30.70;67.20
14409;DHT22;7289;50.706;4.992;2023-06-10T13:26:50;30.80;65.70
14409;DHT22;7289;50.706;4.992;2023-06-10T13:29:19;30.90;65.80
14409;DHT22;7289;50.706;4.992;2023-06-10T13:31:47;31.00;64.50
14409;DHT22;7289;50.706;4.992;2023-06-10T13:34:15;31.00;65.30
14409;DHT22;7289;50.706;4.992;2023-06-10T13:36:45;31.00;63.90
14409;DHT22;7289;50.706;4.992;2023-06-10T13:39:13;31.00;65.60
14409;DHT22;7289;50.706;4.992;2023-06-10T13:41:42;31.00;65.50
14409;DHT22;7289;50.706;4.992;2023-06-10T13:44:10;30.90;64.00
14409;DHT22;7289;50.706;4.992;2023-06-10T13:46:39;31.00;67.60
14409;DHT22;7289;50.706;4.992;2023-06-10T13:49:07;31.20;66.20
14409;DHT22;7289;50.706;4.992;2023-06-10T13:51:35;31.20;63.70
14409;DHT22;7289;50.706;4.992;2023-06-10T13:54:05;31.20;65.90
14409;DHT22;7289;50.706;4.992;2023-06-10T13:56:33;31.20;66.40
14409;DHT22;7289;50.706;4.992;2023-06-10T13:59:04;31.20;66.30
14409;DHT22;7289;50.706;4.992;2023-06-10T14:01:33;31.30;67.00
14409;DHT22;7289;50.706;4.992;2023-06-10T14:04:01;31.40;67.30
14409;DHT22;7289;50.706;4.992;2023-06-10T14:06:30;31.50;66.30
14409;DHT22;7289;50.706;4.992;2023-06-10T14:09:00;31.50;66.30
14409;DHT22;7289;50.706;4.992;2023-06-10T14:11:30;31.60;66.40
14409;DHT22;7289;50.706;4.992;2023-06-10T14:14:01;31.80;64.70
14409;DHT22;7289;50.706;4.992;2023-06-10T14:16:29;31.80;64.90
14409;DHT22;7289;50.706;4.992;2023-06-10T14:18:57;31.60;64.90
14409;DHT22;7289;50.706;4.992;2023-06-10T14:21:26;31.40;67.20
14409;DHT22;7289;50.706;4.992;2023-06-10T14:23:54;31.30;63.70
14409;DHT22;7289;50.706;4.992;2023-06-10T14:26:23;31.50;65.60
14409;DHT22;7289;50.706;4.992;2023-06-10T14:28:54;31.50;63.30
14409;DHT22;7289;50.706;4.992;2023-06-10T14:31:22;31.50;62.80
14409;DHT22;7289;50.706;4.992;2023-06-10T14:33:51;31.40;64.00
14409;DHT22;7289;50.706;4.992;2023-06-10T14:36:19;31.20;62.70
14409;DHT22;7289;50.706;4.992;2023-06-10T14:38:47;31.10;64.90
14409;DHT22;7289;50.706;4.992;2023-06-10T14:41:17;31.00;64.80
14409;DHT22;7289;50.706;4.992;2023-06-10T14:43:45;31.20;66.30
14409;DHT22;7289;50.706;4.992;2023-06-10T14:46:15;31.30;64.80
14409;DHT22;7289;50.706;4.992;2023-06-10T14:48:43;31.40;62.30
14409;DHT22;7289;50.706;4.992;2023-06-10T14:51:11;31.70;63.50
14409;DHT22;7289;50.706;4.992;2023-06-10T14:53:39;31.80;63.10
14409;DHT22;7289;50.706;4.992;2023-06-10T14:56:08;32.00;63.70
14409;DHT22;7289;50.706;4.992;2023-06-10T14:58:37;32.20;63.10
14409;DHT22;7289;50.706;4.992;2023-06-10T15:01:05;32.30;59.30
14409;DHT22;7289;50.706;4.992;2023-06-10T15:03:35;32.40;61.80
14409;DHT22;7289;50.706;4.992;2023-06-10T15:06:03;32.20;59.20
14409;DHT22;7289;50.706;4.992;2023-06-10T15:08:31;32.30;63.00
14409;DHT22;7289;50.706;4.992;2023-06-10T15:11:00;32.50;65.80
14409;DHT22;7289;50.706;4.992;2023-06-10T15:13:29;32.70;64.70
14409;DHT22;7289;50.706;4.992;2023-06-10T15:15:57;32.70;61.80
14409;DHT22;7289;50.706;4.992;2023-06-10T15:18:29;32.70;61.80
14409;DHT22;7289;50.706;4.992;2023-06-10T15:20:59;32.50;59.00
14409;DHT22;7289;50.706;4.992;2023-06-10T15:23:27;32.40;63.10
14409;DHT22;7289;50.706;4.992;2023-06-10T15:25:56;32.30;62.50
14409;DHT22;7289;50.706;4.992;2023-06-10T15:28:24;32.10;61.00
14409;DHT22;7289;50.706;4.992;2023-06-10T15:30:54;32.10;61.20
14409;DHT22;7289;50.706;4.992;2023-06-10T15:33:23;32.30;62.40
14409;DHT22;7289;50.706;4.992;2023-06-10T15:35:51;32.40;63.60
14409;DHT22;7289;50.706;4.992;2023-06-10T15:38:21;32.50;62.00
14409;DHT22;7289;50.706;4.992;2023-06-10T15:40:49;32.50;61.10
14409;DHT22;7289;50.706;4.992;2023-06-10T15:43:18;32.40;63.50
14409;DHT22;7289;50.706;4.992;2023-06-10T15:45:46;32.50;62.50
14409;DHT22;7289;50.706;4.992;2023-06-10T15:48:14;32.40;62.30
14409;DHT22;7289;50.706;4.992;2023-06-10T15:50:43;32.50;61.00
14409;DHT22;7289;50.706;4.992;2023-06-10T15:53:12;32.40;61.10
14409;DHT22;7289;50.706;4.992;2023-06-10T15:55:41;32.50;61.20
14409;DHT22;7289;50.706;4.992;2023-06-10T15:58:10;32.60;60.80
14409;DHT22;7289;50.706;4.992;2023-06-10T16:00:38;32.70;63.80
14409;DHT22;7289;50.706;4.992;2023-06-10T16:03:07;32.80;58.80